Hammersmith, United Kingdom
Current Conditions -  °F | °C
As of 9:50 PM on Sunday 21 Dec 2014 (Local Time) from EGWU Reporting Station
Overcast Overcast  
Wind Chill: 54°   Ceiling: 1300
Heat Index: 54°   Visibility: 6mi
Dew Point: 48°   Wind: 18mph
Humidity: 82%   Direction: 250°WSW
Pressure: 30.15"   Gusts: 31mph
Location:  51.49°N, 0.23°W
Report Text: EGWU 212150Z AUTO 25016G27KT 9999 // OVC013/// 12/09 Q1021
Loading
Personal Weather Stations






























Interactive Weather Map New forecast layout! Learn more

10-Day Weather Forecast

Advertisements
Track Severe Weather on mobile